Time;durP1;ratioP1;P1;durP2;ratioP2;P2;SDS_P1;SDS_P2;PMS_P1;PMS_P2;Temp;Humidity;BMP_temperature;BMP_pressure;BME280_temperature;BME280_humidity;BME280_pressure;Samples;Min_cycle;Max_cycle;Signal;HPM_P1;HPM_P2
2022/10/29 00:02:30;;;;;;;4.32;2.28;;;12.10;99.90;;;;;;6038071;23;20027;-85
2022/10/29 00:06:05;;;;;;;9.45;4.38;;;12.10;99.90;;;;;;6003433;23;20038;-85
2022/10/29 00:09:34;;;;;;;2.70;2.47;;;11.90;99.90;;;;;;5993735;23;20035;-85
2022/10/29 00:12:42;;;;;;;3.50;2.20;;;11.80;99.90;;;;;;5984722;23;20388;-85
2022/10/29 00:19:49;;;;;;;10.15;4.15;;;11.50;99.90;;;;;;6081203;23;20353;-84
2022/10/29 00:22:43;;;;;;;7.20;2.50;;;11.50;99.90;;;;;;6096018;23;20450;-85
2022/10/29 00:25:35;;;;;;;9.30;3.05;;;11.50;99.90;;;;;;6079943;23;20026;-85
2022/10/29 00:28:50;;;;;;;4.65;2.55;;;11.50;99.90;;;;;;6082868;23;20026;-85
2022/10/29 00:32:15;;;;;;;9.57;1.88;;;11.70;99.90;;;;;;6081252;23;20029;-85
2022/10/29 00:35:05;;;;;;;3.83;2.45;;;11.70;99.90;;;;;;6058914;23;20329;-84
2022/10/29 00:38:07;;;;;;;8.07;4.38;;;11.70;99.90;;;;;;6056673;23;20026;-85
2022/10/29 00:40:45;;;;;;;6.00;2.53;;;11.50;99.90;;;;;;6039317;23;20026;-85
2022/10/29 00:43:46;;;;;;;4.00;3.10;;;11.40;99.90;;;;;;6076577;23;20018;-84
2022/10/29 00:47:10;;;;;;;3.03;1.95;;;11.20;99.90;;;;;;6079219;23;20448;-85
2022/10/29 00:50:08;;;;;;;2.33;2.05;;;11.10;99.90;;;;;;6078686;23;20342;-85
2022/10/29 00:53:00;;;;;;;12.50;6.40;;;11.20;99.90;;;;;;6079295;23;20037;-85
2022/10/29 00:56:12;;;;;;;3.42;2.03;;;11.40;99.90;;;;;;6067963;23;20028;-85
2022/10/29 00:58:58;;;;;;;2.65;2.45;;;11.30;99.90;;;;;;6053212;23;20021;-85
2022/10/29 01:01:59;;;;;;;;;;;;;;;;;;;;;
2022/10/29 01:05:26;;;;;;;3.83;2.53;;;11.00;99.90;;;;;;6058068;23;20029;-85
2022/10/29 01:08:18;;;;;;;3.17;2.38;;;11.00;99.90;;;;;;6055902;23;20019;-85
2022/10/29 01:12:47;;;;;;;7.07;2.78;;;10.90;99.90;;;;;;6081647;23;20346;-85
2022/10/29 01:16:42;;;;;;;6.22;4.50;;;11.00;99.90;;;;;;6049085;23;20034;-85
2022/10/29 01:20:28;;;;;;;3.17;2.13;;;11.10;99.90;;;;;;5941374;23;20137;-85
2022/10/29 01:24:34;;;;;;;5.38;2.72;;;11.20;99.90;;;;;;6052370;23;20034;-85
2022/10/29 01:28:06;;;;;;;6.07;2.22;;;11.00;99.90;;;;;;5998827;23;20436;-85
2022/10/29 01:31:27;;;;;;;;;;;;;;;;;;;;;
2022/10/29 01:34:50;;;;;;;12.93;5.63;;;10.90;99.90;;;;;;6021611;23;20019;-86
2022/10/29 01:38:20;;;;;;;8.48;2.33;;;11.00;99.90;;;;;;6015690;23;20015;-85
2022/10/29 01:42:04;;;;;;;7.67;3.73;;;11.00;99.90;;;;;;5982542;23;20033;-85
2022/10/29 01:45:26;;;;;;;7.30;2.92;;;11.10;99.90;;;;;;6016154;23;20395;-85
2022/10/29 01:48:28;;;;;;;12.40;4.03;;;11.20;99.90;;;;;;6008250;23;20026;-85
2022/10/29 01:51:50;;;;;;;4.38;2.78;;;11.20;99.90;;;;;;5949617;23;20051;-85
2022/10/29 01:55:40;;;;;;;4.13;2.05;;;11.00;99.90;;;;;;5957181;23;20028;-85
2022/10/29 01:58:59;;;;;;;7.32;2.85;;;10.90;99.90;;;;;;5918236;23;20023;-85
2022/10/29 02:02:14;;;;;;;5.28;2.30;;;10.80;99.90;;;;;;5990278;23;20042;-85
2022/10/29 02:05:10;;;;;;;4.28;3.45;;;11.00;99.90;;;;;;5967091;23;20038;-85
2022/10/29 02:08:29;;;;;;;8.82;2.67;;;11.00;99.90;;;;;;5969907;23;20439;-85
2022/10/29 02:11:40;;;;;;;3.17;2.30;;;11.10;99.90;;;;;;6001894;23;20023;-85
2022/10/29 02:15:41;;;;;;;5.40;2.60;;;11.10;99.90;;;;;;6007051;23;20019;-85
2022/10/29 02:18:56;;;;;;;3.40;3.10;;;10.50;99.90;;;;;;5988727;23;20031;-85
2022/10/29 02:21:52;;;;;;;9.95;2.45;;;10.40;99.90;;;;;;5993060;23;20042;-85
2022/10/29 02:24:40;;;;;;;1.98;1.88;;;10.40;99.90;;;;;;5994134;23;20035;-85
2022/10/29 02:27:37;;;;;;;4.03;2.60;;;10.40;99.90;;;;;;5930063;23;20034;-85
2022/10/29 02:30:39;;;;;;;5.28;2.28;;;10.50;99.90;;;;;;5967422;23;20024;-85
2022/10/29 02:33:24;;;;;;;7.55;3.28;;;10.60;99.90;;;;;;5985725;23;20030;-85
2022/10/29 02:36:19;;;;;;;8.15;2.78;;;10.70;99.90;;;;;;5943560;24;20032;-85
2022/10/29 02:39:08;;;;;;;2.72;2.13;;;10.60;99.90;;;;;;5955836;24;20487;-85
2022/10/29 02:41:45;;;;;;;14.18;4.20;;;10.50;99.90;;;;;;5956644;24;20349;-85
2022/10/29 02:44:28;;;;;;;6.13;2.13;;;10.50;99.90;;;;;;5977360;23;20028;-84
2022/10/29 02:47:10;;;;;;;10.45;4.05;;;10.70;99.90;;;;;;5928423;23;20578;-85
2022/10/29 02:49:53;;;;;;;6.85;4.15;;;10.70;99.90;;;;;;5945154;24;20020;-85
2022/10/29 02:52:38;;;;;;;2.78;2.55;;;10.70;99.90;;;;;;5938395;24;20028;-85
2022/10/29 02:55:44;;;;;;;5.78;4.13;;;10.50;99.90;;;;;;5960284;23;20024;-85
2022/10/29 02:58:48;;;;;;;2.70;2.42;;;10.40;99.90;;;;;;5947549;23;20029;-85
2022/10/29 03:01:26;;;;;;;6.72;3.47;;;10.30;99.90;;;;;;6023733;23;20029;-84
2022/10/29 03:04:05;;;;;;;3.90;2.05;;;10.30;99.90;;;;;;6048188;23;20037;-85
2022/10/29 03:06:43;;;;;;;6.93;2.97;;;10.20;99.90;;;;;;6024571;23;20033;-85
2022/10/29 03:09:23;;;;;;;11.38;4.53;;;10.20;99.90;;;;;;6047504;23;20019;-85
2022/10/29 03:12:01;;;;;;;4.80;2.95;;;10.20;99.90;;;;;;6049021;23;20018;-85
2022/10/29 03:14:54;;;;;;;8.57;4.68;;;10.30;99.90;;;;;;6048070;23;20022;-85
2022/10/29 03:17:31;;;;;;;7.95;3.00;;;10.30;99.90;;;;;;6047519;23;20320;-85
2022/10/29 03:21:10;;;;;;;3.90;2.22;;;10.30;99.90;;;;;;6028519;23;20034;-85
2022/10/29 03:23:51;;;;;;;4.50;2.70;;;10.00;99.90;;;;;;6010293;23;20023;-85
2022/10/29 03:26:45;;;;;;;4.05;2.22;;;9.80;99.90;;;;;;6072333;23;20022;-85
2022/10/29 03:29:31;;;;;;;9.10;2.58;;;9.70;99.90;;;;;;6075930;23;20316;-85
2022/10/29 03:32:25;;;;;;;6.65;3.33;;;9.50;99.90;;;;;;6047675;23;20473;-85
2022/10/29 03:35:00;;;;;;;7.00;3.20;;;9.60;99.90;;;;;;6047556;23;20342;-85
2022/10/29 03:37:48;;;;;;;4.53;3.13;;;9.80;99.90;;;;;;6072697;23;20030;-85
2022/10/29 03:40:40;;;;;;;4.45;2.67;;;9.90;99.90;;;;;;6013278;23;20026;-84
2022/10/29 03:44:00;;;;;;;4.78;2.60;;;10.00;99.90;;;;;;6030637;23;20019;-85
2022/10/29 03:46:44;;;;;;;2.72;2.08;;;10.00;99.90;;;;;;6042224;23;20026;-86
2022/10/29 03:49:33;;;;;;;11.82;3.75;;;9.70;99.90;;;;;;6026453;23;20331;-85
2022/10/29 03:52:29;;;;;;;6.43;5.78;;;9.60;99.90;;;;;;6014913;23;20078;-85
2022/10/29 03:55:32;;;;;;;;;;;;;;;;;;;;;
2022/10/29 03:58:44;;;;;;;3.05;2.72;;;9.90;99.90;;;;;;6068394;23;20371;-84
2022/10/29 04:01:24;;;;;;;5.68;3.20;;;9.80;99.90;;;;;;6049302;23;20022;-85
2022/10/29 04:04:11;;;;;;;4.63;3.45;;;9.90;99.90;;;;;;6058932;23;20312;-85
2022/10/29 04:07:11;;;;;;;12.55;3.75;;;10.00;99.90;;;;;;6072758;23;20443;-85
2022/10/29 04:10:18;;;;;;;3.55;3.20;;;10.10;99.90;;;;;;6082739;23;20018;-84
2022/10/29 04:13:33;;;;;;;5.32;2.65;;;10.10;99.90;;;;;;6067133;23;20037;-85
2022/10/29 04:16:10;;;;;;;5.63;2.92;;;10.00;99.90;;;;;;6054500;23;20027;-85
2022/10/29 04:18:56;;;;;;;7.05;4.25;;;9.80;99.90;;;;;;6037783;23;20026;-84
2022/10/29 04:21:25;;;;;;;10.30;3.40;;;10.00;99.90;;;;;;6048287;23;20026;-85
2022/10/29 04:24:21;;;;;;;9.20;4.88;;;10.00;99.90;;;;;;6028408;23;20026;-84
2022/10/29 04:27:12;;;;;;;5.10;2.47;;;9.90;99.90;;;;;;6096835;23;20033;-84
2022/10/29 04:30:04;;;;;;;8.23;2.85;;;9.90;99.90;;;;;;6048197;23;20022;-85
2022/10/29 04:32:57;;;;;;;6.07;3.85;;;9.90;99.90;;;;;;6014877;23;20033;-85
2022/10/29 04:35:36;;;;;;;12.57;2.47;;;10.00;99.90;;;;;;6026875;23;20026;-85
2022/10/29 04:38:13;;;;;;;5.95;3.60;;;10.40;99.90;;;;;;6025866;23;20023;-84
2022/10/29 04:45:33;;;;;;;3.72;2.53;;;10.50;99.90;;;;;;6039621;23;20014;-84
2022/10/29 04:48:38;;;;;;;2.95;2.53;;;10.70;99.90;;;;;;6055243;23;20026;-85
2022/10/29 04:51:31;;;;;;;2.38;2.17;;;10.60;99.90;;;;;;6070461;23;20014;-84
2022/10/29 04:54:12;;;;;;;5.07;2.47;;;10.50;99.90;;;;;;6048174;23;20018;-85
2022/10/29 04:56:42;;;;;;;7.93;2.53;;;10.50;99.90;;;;;;6045773;23;20262;-84
2022/10/29 04:59:10;;;;;;;5.13;2.00;;;10.40;99.90;;;;;;6046938;23;20022;-84
2022/10/29 05:01:37;;;;;;;4.05;3.40;;;10.40;99.90;;;;;;6047814;23;20350;-84
2022/10/29 05:04:07;;;;;;;7.45;2.63;;;10.50;99.90;;;;;;6036602;23;20033;-84
2022/10/29 05:06:38;;;;;;;4.88;3.33;;;10.70;99.90;;;;;;6064617;23;20022;-85
2022/10/29 05:10:21;;;;;;;10.18;3.80;;;10.90;99.90;;;;;;6046804;23;20389;-85
2022/10/29 05:13:06;;;;;;;3.35;2.10;;;10.90;99.90;;;;;;6046676;23;20462;-85
2022/10/29 05:15:40;;;;;;;4.57;2.17;;;11.10;99.90;;;;;;6023070;23;20026;-84
2022/10/29 05:18:19;;;;;;;11.25;4.20;;;11.00;99.90;;;;;;6044447;23;20308;-84
2022/10/29 05:20:47;;;;;;;3.72;2.53;;;11.00;99.90;;;;;;6099233;23;20014;-87
2022/10/29 05:23:47;;;;;;;2.13;2.00;;;11.00;99.90;;;;;;6057159;23;20018;-93
2022/10/29 05:26:18;;;;;;;4.13;2.70;;;11.00;99.90;;;;;;6048293;23;20026;-85
2022/10/29 05:28:50;;;;;;;6.00;3.08;;;11.10;99.90;;;;;;6110998;23;20022;-85
2022/10/29 05:31:29;;;;;;;7.30;2.67;;;11.10;99.90;;;;;;6104303;23;20625;-84
2022/10/29 05:34:15;;;;;;;4.47;2.28;;;11.10;99.90;;;;;;6078149;23;20033;-84
2022/10/29 05:36:57;;;;;;;8.55;3.10;;;11.10;99.90;;;;;;6054081;23;20029;-84
2022/10/29 05:39:33;;;;;;;4.50;3.13;;;11.10;99.90;;;;;;6053168;23;20468;-84
2022/10/29 05:42:10;;;;;;;4.75;2.67;;;11.10;99.90;;;;;;6075856;23;20025;-84
2022/10/29 05:44:44;;;;;;;9.40;2.72;;;11.10;99.90;;;;;;6075553;23;20458;-84
2022/10/29 05:47:13;;;;;;;8.00;2.67;;;11.10;99.90;;;;;;6061919;23;20472;-85
2022/10/29 05:49:43;;;;;;;2.40;2.15;;;11.20;99.90;;;;;;6075719;23;20022;-85
2022/10/29 05:52:13;;;;;;;9.55;3.78;;;11.20;99.90;;;;;;6074896;23;20037;-85
2022/10/29 05:54:57;;;;;;;9.32;4.50;;;11.30;99.90;;;;;;6077063;23;20026;-85
2022/10/29 05:57:30;;;;;;;9.18;6.40;;;11.30;99.90;;;;;;6074785;23;20022;-84
2022/10/29 05:59:59;;;;;;;3.55;2.50;;;11.30;99.90;;;;;;6062172;23;20048;-84
2022/10/29 06:02:48;;;;;;;8.32;5.10;;;11.30;99.90;;;;;;6098793;23;20022;-84
2022/10/29 06:05:28;;;;;;;4.05;3.70;;;11.30;99.90;;;;;;6053912;23;20042;-85
2022/10/29 06:08:11;;;;;;;2.50;2.30;;;11.30;99.90;;;;;;6097808;23;20029;-84
2022/10/29 06:10:39;;;;;;;7.90;5.07;;;11.30;99.90;;;;;;6107151;23;20022;-84
2022/10/29 06:13:11;;;;;;;15.02;6.63;;;11.30;99.90;;;;;;6109238;23;20017;-84
2022/10/29 06:15:47;;;;;;;13.32;4.00;;;11.30;99.90;;;;;;6096223;23;20461;-83
2022/10/29 06:18:15;;;;;;;7.18;2.42;;;11.30;99.90;;;;;;6083065;23;20014;-84
2022/10/29 06:20:42;;;;;;;11.13;2.88;;;11.40;99.90;;;;;;6056902;23;20025;-83
2022/10/29 06:23:10;;;;;;;12.80;3.95;;;11.50;99.90;;;;;;6076499;23;20019;-83
2022/10/29 06:25:38;;;;;;;11.50;3.58;;;11.70;99.90;;;;;;6096041;23;20025;-83
2022/10/29 06:28:07;;;;;;;7.10;2.63;;;11.70;99.90;;;;;;6099868;23;20374;-82
2022/10/29 06:30:35;;;;;;;6.82;3.03;;;11.70;99.90;;;;;;6106281;23;20021;-83
2022/10/29 06:33:04;;;;;;;4.35;3.15;;;11.60;99.90;;;;;;6108586;23;20015;-83
2022/10/29 06:35:32;;;;;;;4.55;2.08;;;11.70;99.90;;;;;;6102535;23;20022;-83
2022/10/29 06:38:04;;;;;;;9.75;2.35;;;11.70;99.90;;;;;;6082587;23;20498;-83
2022/10/29 06:40:52;;;;;;;7.28;2.20;;;11.80;99.90;;;;;;6071499;23;20335;-82
2022/10/29 06:43:20;;;;;;;;;;;12.00;99.90;;;;;;6078446;23;20490;-83
2022/10/29 06:45:48;;;;;;;13.63;5.10;;;12.10;99.90;;;;;;6082662;23;19921;-82
2022/10/29 06:48:16;;;;;;;3.78;1.80;;;12.10;99.90;;;;;;6099054;23;20042;-83
2022/10/29 06:50:49;;;;;;;7.72;4.32;;;12.30;99.90;;;;;;6080823;23;20018;-82
2022/10/29 06:53:17;;;;;;;11.88;2.28;;;12.40;99.90;;;;;;6108228;23;20014;-82
2022/10/29 06:55:45;;;;;;;2.70;2.50;;;12.50;99.90;;;;;;6024387;23;20022;-83
2022/10/29 06:58:14;;;;;;;8.88;3.05;;;12.50;99.90;;;;;;6082141;23;20343;-83
2022/10/29 07:00:43;;;;;;;6.30;2.40;;;12.50;99.90;;;;;;6096983;23;20034;-83
2022/10/29 07:03:15;;;;;;;10.63;2.70;;;12.40;99.90;;;;;;6078134;23;20022;-83
2022/10/29 07:05:44;;;;;;;6.38;2.38;;;12.40;99.90;;;;;;6024530;23;20018;-82
2022/10/29 07:08:11;;;;;;;4.65;2.03;;;12.30;99.90;;;;;;6073987;23;20019;-83
2022/10/29 07:11:10;;;;;;;8.38;2.33;;;12.30;99.90;;;;;;6104959;23;20027;-83
2022/10/29 07:13:38;;;;;;;2.78;2.50;;;12.30;99.90;;;;;;6107918;23;20014;-83
2022/10/29 07:16:05;;;;;;;4.43;3.38;;;12.30;99.90;;;;;;6099817;23;20345;-83
2022/10/29 07:18:33;;;;;;;8.90;3.03;;;12.30;99.90;;;;;;6122215;23;20045;-83
2022/10/29 07:21:02;;;;;;;5.47;2.97;;;12.30;99.90;;;;;;6111281;23;20341;-83
2022/10/29 07:23:30;;;;;;;17.88;3.78;;;12.30;99.90;;;;;;6077014;23;20029;-83
2022/10/29 07:25:57;;;;;;;3.67;2.20;;;12.40;99.90;;;;;;6101215;23;20018;-83
2022/10/29 07:28:25;;;;;;;6.63;2.42;;;12.50;99.90;;;;;;6099500;23;20492;-83
2022/10/29 07:30:58;;;;;;;8.50;2.72;;;12.50;99.90;;;;;;6107779;23;20034;-83
2022/10/29 07:33:28;;;;;;;5.88;3.85;;;12.50;99.90;;;;;;6137017;23;20022;-83
2022/10/29 07:35:57;;;;;;;3.22;2.95;;;12.50;99.90;;;;;;6127943;23;20026;-83
2022/10/29 07:38:25;;;;;;;3.70;2.75;;;12.50;99.90;;;;;;6052932;23;20025;-83
2022/10/29 07:42:04;;;;;;;3.10;2.78;;;12.50;99.90;;;;;;6136282;23;20025;-83
2022/10/29 07:44:31;;;;;;;3.70;2.78;;;12.50;99.90;;;;;;6126944;23;20500;-83
2022/10/29 07:47:01;;;;;;;15.10;5.53;;;12.80;99.90;;;;;;6100484;23;20767;-83
2022/10/29 07:49:28;;;;;;;4.30;1.95;;;12.90;99.90;;;;;;6136915;23;20032;-83
2022/10/29 07:51:56;;;;;;;8.95;2.22;;;13.00;99.90;;;;;;6103512;23;20030;-83
2022/10/29 07:54:23;;;;;;;11.65;2.72;;;13.20;99.90;;;;;;6125116;23;20014;-83
2022/10/29 11:29:16;;;;;;;2.95;1.95;;;19.40;99.90;;;;;;6049835;23;20027;-86
2022/10/29 11:54:34;;;;;;;20.77;4.18;;;20.50;99.90;;;;;;6021622;23;20313;-87
2022/10/29 11:57:34;;;;;;;4.13;2.38;;;20.60;99.90;;;;;;6059382;23;20035;-87
2022/10/29 12:00:16;;;;;;;10.20;4.30;;;20.70;99.90;;;;;;6035900;23;20465;-86
2022/10/29 12:03:14;;;;;;;9.82;2.88;;;20.60;99.90;;;;;;6010151;23;20028;-90
2022/10/29 12:06:10;;;;;;;64.90;19.08;;;20.70;99.90;;;;;;5993015;24;20020;-88
2022/10/29 12:08:56;;;;;;;8.10;3.40;;;20.80;99.90;;;;;;5982667;24;20028;-86
2022/10/29 12:11:52;;;;;;;6.30;2.22;;;20.70;99.90;;;;;;5982877;23;20044;-86
2022/10/29 12:14:32;;;;;;;3.90;2.50;;;20.70;99.90;;;;;;5993256;23;20027;-91
2022/10/29 12:17:10;;;;;;;7.90;2.40;;;20.80;99.90;;;;;;6020965;23;20012;-87
2022/10/29 12:20:08;;;;;;;15.10;2.72;;;20.70;99.90;;;;;;5998108;23;20025;-88
2022/10/29 12:22:43;;;;;;;10.30;2.85;;;20.80;99.90;;;;;;5986089;23;20024;-89
2022/10/29 12:25:36;;;;;;;9.73;3.90;;;20.70;99.90;;;;;;5990070;24;20040;-89
2022/10/29 12:28:18;;;;;;;6.70;3.30;;;20.70;99.90;;;;;;5984781;23;20036;-90
2022/10/29 12:31:23;;;;;;;7.43;2.35;;;20.70;99.90;;;;;;5990398;23;20031;-90
2022/10/29 12:34:08;;;;;;;3.38;2.22;;;20.80;99.90;;;;;;5974191;24;20029;-91
2022/10/29 12:36:58;;;;;;;9.60;2.35;;;20.80;99.90;;;;;;6032367;23;20035;-88
2022/10/29 12:39:30;;;;;;;13.15;2.15;;;20.80;99.90;;;;;;6015691;23;20034;-88
2022/10/29 12:42:04;;;;;;;5.97;2.75;;;20.90;99.90;;;;;;6018919;23;20019;-88
2022/10/29 12:44:53;;;;;;;4.53;2.40;;;20.90;99.90;;;;;;5984511;23;20361;-87
2022/10/29 12:47:31;;;;;;;7.95;2.10;;;20.90;99.90;;;;;;5970757;23;20386;-88
2022/10/29 12:50:35;;;;;;;9.70;2.45;;;20.80;99.90;;;;;;6020949;23;20011;-87
2022/10/29 12:53:20;;;;;;;7.75;1.98;;;20.80;99.90;;;;;;6021524;23;20032;-84
2022/10/29 12:55:58;;;;;;;7.57;2.53;;;20.90;99.90;;;;;;6013621;23;20444;-86
2022/10/29 12:58:58;;;;;;;8.70;2.25;;;20.90;99.90;;;;;;6018700;23;20023;-89
2022/10/29 13:01:27;;;;;;;;;;;21.10;99.90;;;;;;6038585;23;20023;-88
2022/10/29 13:04:33;;;;;;;8.13;2.50;;;21.10;99.90;;;;;;6040587;23;19929;-87
2022/10/29 13:07:21;;;;;;;9.48;2.20;;;21.20;99.90;;;;;;6044713;23;20474;-85
2022/10/29 13:10:21;;;;;;;9.57;2.55;;;21.30;99.90;;;;;;6049518;23;20019;-88
2022/10/29 13:12:57;;;;;;;5.45;2.65;;;21.30;99.90;;;;;;6017512;23;20028;-85
2022/10/29 13:15:31;;;;;;;7.78;2.40;;;21.30;99.90;;;;;;6029808;23;20023;-82
2022/10/29 13:18:15;;;;;;;5.53;2.28;;;21.20;99.90;;;;;;6049235;23;20018;-81
2022/10/29 13:20:50;;;;;;;13.73;2.45;;;21.30;99.90;;;;;;6009685;23;20027;-84
2022/10/29 13:23:36;;;;;;;5.18;2.83;;;21.30;99.90;;;;;;6016401;23;20027;-87
2022/10/29 13:26:11;;;;;;;8.40;1.92;;;21.20;99.90;;;;;;6040468;23;20015;-88
2022/10/29 13:28:46;;;;;;;15.02;4.43;;;21.20;99.90;;;;;;6094232;23;20052;-88
2022/10/29 13:31:13;;;;;;;7.68;2.92;;;21.20;99.90;;;;;;6129758;23;20341;-87
2022/10/29 13:33:41;;;;;;;25.42;3.33;;;21.20;99.90;;;;;;6135954;23;20018;-89
2022/10/29 13:36:14;;;;;;;5.00;2.65;;;21.30;99.90;;;;;;6127053;23;20349;-88
2022/10/29 13:38:44;;;;;;;7.93;2.53;;;21.30;99.90;;;;;;6124892;23;20025;-88
2022/10/29 13:41:41;;;;;;;5.38;2.28;;;21.30;99.90;;;;;;6148884;23;20018;-90
2022/10/29 13:44:15;;;;;;;11.65;3.03;;;21.20;99.90;;;;;;6124146;23;20045;-89
2022/10/29 13:47:02;;;;;;;7.85;3.67;;;21.20;99.90;;;;;;6132873;23;20033;-88
2022/10/29 13:49:42;;;;;;;18.88;4.82;;;21.20;99.90;;;;;;6135950;23;20021;-88
2022/10/29 13:52:19;;;;;;;5.30;2.45;;;21.10;99.90;;;;;;6127077;23;20033;-87
2022/10/29 13:55:01;;;;;;;9.15;1.95;;;21.10;99.90;;;;;;6133019;23;20033;-88
2022/10/29 13:57:32;;;;;;;11.30;3.05;;;21.10;99.90;;;;;;6135420;23;20014;-88
2022/10/29 14:00:11;;;;;;;7.60;3.65;;;21.00;99.90;;;;;;6123925;23;20030;-86
2022/10/29 14:02:42;;;;;;;4.88;2.13;;;20.90;99.90;;;;;;6133093;23;20026;-87
2022/10/29 14:05:33;;;;;;;9.32;3.08;;;20.90;99.90;;;;;;6100062;23;20029;-88
2022/10/29 14:08:42;;;;;;;7.35;2.95;;;20.90;99.90;;;;;;6127194;23;20029;-88
2022/10/29 14:11:30;;;;;;;13.13;2.88;;;20.90;99.90;;;;;;6122962;23;20044;-88
2022/10/29 14:14:01;;;;;;;8.00;2.78;;;20.90;99.90;;;;;;6134453;23;20446;-87
2022/10/29 14:16:31;;;;;;;;;;;20.80;99.90;;;;;;6124088;23;20037;-86
2022/10/29 14:19:13;;;;;;;6.43;3.20;;;20.70;99.90;;;;;;6122880;23;19924;-88
2022/10/29 14:21:50;;;;;;;11.57;2.70;;;20.70;99.90;;;;;;6135441;23;20022;-89
2022/10/29 14:24:21;;;;;;;7.85;3.10;;;20.70;99.90;;;;;;6128771;23;20028;-90
2022/10/29 14:27:06;;;;;;;9.82;4.30;;;20.60;99.90;;;;;;6127882;23;20022;-88
2022/10/29 14:29:38;;;;;;;4.43;1.98;;;20.50;99.90;;;;;;6135681;23;20636;-89
2022/10/29 14:32:10;;;;;;;6.32;2.30;;;20.50;99.90;;;;;;6122729;23;20041;-88
2022/10/29 14:34:40;;;;;;;4.90;2.05;;;20.50;99.90;;;;;;6133250;23;20014;-88
2022/10/29 14:37:36;;;;;;;10.52;3.40;;;20.50;99.90;;;;;;6123974;23;20450;-89
2022/10/29 14:40:21;;;;;;;15.15;3.47;;;20.30;99.90;;;;;;6078133;23;20447;-90
2022/10/29 14:43:36;;;;;;;10.02;2.35;;;20.30;99.90;;;;;;6067261;23;20027;-92
2022/10/29 14:46:30;;;;;;;10.52;3.83;;;20.00;99.90;;;;;;6070434;23;20022;-87
2022/10/29 14:50:06;;;;;;;5.78;2.17;;;19.80;99.90;;;;;;6036311;23;20401;-90
2022/10/29 14:53:27;;;;;;;8.85;2.97;;;19.80;99.90;;;;;;6067358;23;20034;-91
2022/10/29 15:00:29;;;;;;;9.48;2.42;;;19.70;99.90;;;;;;6013601;23;20117;-88
2022/10/29 15:02:56;;;;;;;;;;;19.40;99.90;;;;;;6072025;23;20115;-87
2022/10/29 15:05:27;;;;;;;7.22;3.90;;;19.40;99.90;;;;;;6071776;23;20232;-88
2022/10/29 15:08:10;;;;;;;6.15;3.60;;;19.30;99.90;;;;;;6072523;23;20027;-89
2022/10/29 15:10:52;;;;;;;10.80;2.22;;;19.30;99.90;;;;;;6073921;23;20019;-89
2022/10/29 15:13:35;;;;;;;5.97;2.72;;;19.20;99.90;;;;;;6043796;23;20026;-89
2022/10/29 15:16:07;;;;;;;13.35;4.95;;;19.10;99.90;;;;;;6097835;23;20035;-79
2022/10/29 15:18:36;;;;;;;8.85;4.03;;;19.00;99.90;;;;;;6113438;23;20021;-80
2022/10/29 15:25:43;;;;;;;4.78;2.45;;;18.60;99.90;;;;;;6046088;23;20031;-85
2022/10/29 15:28:28;;;;;;;4.45;2.15;;;18.40;99.90;;;;;;6006288;23;20493;-86
2022/10/29 15:31:58;;;;;;;5.65;2.50;;;18.20;99.90;;;;;;6031590;23;20035;-85
2022/10/29 15:35:22;;;;;;;8.85;3.70;;;17.80;99.90;;;;;;6132479;23;20029;-86
2022/10/29 15:37:52;;;;;;;13.38;4.78;;;17.70;99.90;;;;;;6136589;23;20021;-84
2022/10/29 15:40:24;;;;;;;15.98;5.40;;;17.70;99.90;;;;;;6127005;23;20393;-85
2022/10/29 15:43:15;;;;;;;9.55;3.63;;;17.60;99.90;;;;;;6126020;23;20032;-82
2022/10/29 15:45:59;;;;;;;14.15;5.43;;;17.50;99.90;;;;;;6127613;23;20014;-86
2022/10/29 15:48:37;;;;;;;3.45;3.15;;;17.30;99.90;;;;;;6096351;23;20026;-86
2022/10/29 15:51:43;;;;;;;5.32;2.55;;;17.30;99.90;;;;;;6081460;23;20026;-86
2022/10/29 16:26:24;;;;;;;5.25;2.75;;;15.70;99.90;;;;;;6106583;23;20034;-82
2022/10/29 16:47:52;;;;;;;4.82;3.08;;;14.70;99.90;;;;;;6088340;23;20022;-85
2022/10/29 16:50:59;;;;;;;4.82;3.85;;;14.70;99.90;;;;;;6028248;23;20027;-84
2022/10/29 17:22:04;;;;;;;7.35;2.83;;;14.00;99.90;;;;;;6075983;23;20026;31
2022/10/29 17:24:32;;;;;;;6.38;3.45;;;13.80;99.90;;;;;;6042959;23;20526;-86
2022/10/29 17:26:59;;;;;;;8.05;2.85;;;13.60;99.90;;;;;;6065352;23;20029;-86
2022/10/29 17:29:27;;;;;;;6.82;5.78;;;13.40;99.90;;;;;;6042351;23;20038;-85
2022/10/29 17:31:58;;;;;;;9.85;4.93;;;13.40;99.90;;;;;;6041951;23;20023;-86
2022/10/29 17:34:26;;;;;;;5.78;3.50;;;13.40;99.90;;;;;;6065860;23;20054;-86
2022/10/29 17:36:53;;;;;;;8.15;4.15;;;13.50;99.90;;;;;;6099682;23;20019;-86
2022/10/29 17:39:21;;;;;;;12.32;3.83;;;13.50;99.90;;;;;;6072617;23;20031;-87
2022/10/29 17:41:49;;;;;;;4.97;3.70;;;13.60;99.90;;;;;;6042182;23;20038;-86
2022/10/29 17:44:20;;;;;;;7.60;5.20;;;13.70;99.90;;;;;;6017440;23;20026;-86
2022/10/29 17:46:48;;;;;;;;;;;13.70;99.90;;;;;;6020805;23;20019;-86
2022/10/29 17:49:15;;;;;;;8.23;3.72;;;13.60;99.90;;;;;;6090147;23;19917;-88
2022/10/29 17:51:43;;;;;;;13.13;5.13;;;13.50;99.90;;;;;;6060467;23;20031;-86
2022/10/29 17:54:26;;;;;;;11.00;3.90;;;13.50;99.90;;;;;;6067150;23;20450;-90
2022/10/29 17:58:43;;;;;;;;;;;13.50;99.90;;;;;;5989623;23;20035;-89
2022/10/29 18:01:49;;;;;;;7.45;4.57;;;13.60;99.90;;;;;;6084483;23;20325;-90
2022/10/29 18:04:17;;;;;;;10.40;4.43;;;13.50;99.90;;;;;;6063852;23;20481;-87
2022/10/29 18:06:47;;;;;;;10.43;3.33;;;13.60;99.90;;;;;;6034228;23;20019;-87
2022/10/29 18:09:26;;;;;;;3.92;3.40;;;13.60;99.90;;;;;;6075913;23;20011;-88
2022/10/29 18:11:53;;;;;;;9.68;4.47;;;13.50;99.90;;;;;;6041223;23;20030;-88
2022/10/29 18:14:21;;;;;;;7.72;3.67;;;13.40;99.90;;;;;;6041642;23;20026;-86
2022/10/29 18:16:48;;;;;;;7.78;3.38;;;13.40;99.90;;;;;;6077449;23;20027;-87
2022/10/29 18:19:16;;;;;;;8.27;3.55;;;13.40;99.90;;;;;;6071545;23;20025;-86
2022/10/29 18:21:43;;;;;;;6.05;3.05;;;13.10;99.90;;;;;;6099681;23;20454;-85
2022/10/29 18:24:11;;;;;;;10.30;4.82;;;13.00;99.90;;;;;;6068831;23;20030;-85
2022/10/29 18:26:40;;;;;;;10.90;4.25;;;12.90;99.90;;;;;;6088610;23;20594;-86
2022/10/29 18:29:11;;;;;;;8.25;3.95;;;13.00;99.90;;;;;;6075979;23;20018;-86
2022/10/29 18:31:41;;;;;;;8.90;4.10;;;13.20;99.90;;;;;;6069075;23;20022;-85
2022/10/29 18:34:08;;;;;;;6.95;3.10;;;13.10;99.90;;;;;;6075761;23;20022;-86
2022/10/29 18:36:37;;;;;;;6.38;3.88;;;13.00;99.90;;;;;;6066828;23;20035;-86
2022/10/29 18:40:13;;;;;;;12.82;4.72;;;12.80;99.90;;;;;;6065151;23;20442;-85
2022/10/29 18:42:41;;;;;;;10.45;4.43;;;12.80;99.90;;;;;;6040731;23;20019;-86
2022/10/29 18:45:09;;;;;;;6.55;3.20;;;12.90;99.90;;;;;;6076904;23;20022;-85
2022/10/29 18:47:37;;;;;;;7.55;4.82;;;13.00;99.90;;;;;;6069445;23;20023;-87
2022/10/29 18:50:05;;;;;;;7.38;3.33;;;13.20;99.90;;;;;;6077354;23;20019;-87
2022/10/29 18:52:32;;;;;;;4.72;4.05;;;12.90;99.90;;;;;;6067455;23;20327;-86
2022/10/29 18:55:00;;;;;;;8.15;4.57;;;12.70;99.90;;;;;;6072170;23;20019;-87
2022/10/29 18:57:27;;;;;;;8.07;4.03;;;12.80;99.90;;;;;;6042437;23;20019;-86
2022/10/29 18:59:55;;;;;;;17.08;5.07;;;12.90;99.90;;;;;;6041781;23;20026;-87
2022/10/29 19:02:22;;;;;;;17.48;4.35;;;13.10;99.90;;;;;;6075934;23;20015;-85
2022/10/29 19:04:50;;;;;;;9.43;4.25;;;13.10;99.90;;;;;;6042032;23;20019;-86
2022/10/29 19:07:18;;;;;;;8.00;5.18;;;13.00;99.90;;;;;;6069810;23;20034;-87
2022/10/29 19:09:46;;;;;;;29.00;8.45;;;13.10;99.90;;;;;;6075812;23;20073;-86
2022/10/29 19:12:16;;;;;;;9.15;5.88;;;13.10;99.90;;;;;;6041497;23;20026;-86
2022/10/29 19:14:44;;;;;;;5.53;4.47;;;13.10;99.90;;;;;;6041365;23;20018;-87
2022/10/29 19:17:11;;;;;;;12.60;4.43;;;13.00;99.90;;;;;;6072633;23;20011;-86
2022/10/29 19:19:39;;;;;;;8.35;5.00;;;13.10;99.90;;;;;;6070788;23;20018;-87
2022/10/29 19:22:06;;;;;;;9.98;4.95;;;13.10;99.90;;;;;;6073926;23;20019;-87
2022/10/29 19:24:36;;;;;;;9.93;4.40;;;13.10;99.90;;;;;;6065895;23;20339;-86
2022/10/29 19:27:04;;;;;;;12.15;7.50;;;13.10;99.90;;;;;;6041009;23;20030;-87
2022/10/29 19:29:31;;;;;;;7.63;4.55;;;13.20;99.90;;;;;;6018678;23;20030;-87
2022/10/29 19:31:59;;;;;;;9.23;4.70;;;13.30;99.90;;;;;;6064177;23;20023;-87
2022/10/29 19:34:26;;;;;;;10.68;4.97;;;13.40;99.90;;;;;;6042869;23;20019;-87
2022/10/29 19:36:57;;;;;;;8.68;3.55;;;13.40;99.90;;;;;;6038575;23;20026;-88
2022/10/29 19:39:30;;;;;;;12.82;4.82;;;13.40;99.90;;;;;;6043825;23;20026;-87
2022/10/29 19:41:58;;;;;;;20.20;8.10;;;13.50;99.90;;;;;;6077275;23;20477;-87
2022/10/29 19:44:27;;;;;;;3.33;2.47;;;13.50;99.90;;;;;;6067946;23;20034;-88
2022/10/29 19:46:59;;;;;;;10.75;5.15;;;13.50;99.90;;;;;;6041997;23;20023;-87
2022/10/29 19:49:31;;;;;;;21.60;7.35;;;13.70;99.90;;;;;;6031532;23;20019;-87
2022/10/29 19:51:58;;;;;;;7.30;3.10;;;13.80;99.90;;;;;;6071354;23;20026;-87
2022/10/29 19:54:26;;;;;;;4.90;3.20;;;13.80;99.90;;;;;;6028316;23;20015;-87
2022/10/29 19:56:56;;;;;;;9.25;4.00;;;13.80;99.90;;;;;;6020636;23;20022;-87